createdAt,value
2023-02-26T00:02:11.643Z,100957.44
2023-02-26T00:04:42.978Z,100971.25
2023-02-26T00:07:14.244Z,100975.56
2023-02-26T00:09:45.575Z,100978.09
2023-02-26T00:12:17.111Z,100980.59
2023-02-26T00:14:49.053Z,100983.94
2023-02-26T00:17:26.900Z,100978.56
2023-02-26T00:19:58.749Z,100993.41
2023-02-26T00:22:30.345Z,100998.63
2023-02-26T00:25:01.778Z,100930.22
2023-02-26T00:27:33.079Z,101003.72
2023-02-26T00:30:07.898Z,100997.47
2023-02-26T00:32:39.976Z,101006.09
2023-02-26T00:35:14.573Z,100985.56
2023-02-26T00:38:00.215Z,101007.75
2023-02-26T00:40:44.240Z,100980.19
2023-02-26T00:43:18.795Z,101023.22
2023-02-26T00:46:13.841Z,101024.09
2023-02-26T00:49:16.262Z,101025.03
2023-02-26T00:51:51.921Z,101026.84
2023-02-26T00:54:28.470Z,101028.47
2023-02-26T00:56:59.757Z,101034.38
2023-02-26T00:59:31.324Z,101012.97
2023-02-26T01:02:02.665Z,101039.47
2023-02-26T01:04:34.293Z,101012.97
2023-02-26T01:07:06.976Z,101049.78
2023-02-26T01:09:38.710Z,101050.31
2023-02-26T01:12:13.187Z,101056.69
2023-02-26T01:14:47.187Z,101064.63
2023-02-26T01:17:25.113Z,101056.88
2023-02-26T01:20:09.128Z,101054.16
2023-02-26T01:22:55.571Z,101038.09
2023-02-26T01:25:34.830Z,101044.22
2023-02-26T01:28:06.440Z,101065.28
2023-02-26T01:30:38.255Z,101039.53
2023-02-26T01:33:22.081Z,101068.59
2023-02-26T01:36:00.088Z,101065.03
2023-02-26T01:39:06.181Z,101079.81
2023-02-26T01:41:45.942Z,101078.00
2023-02-26T01:44:28.344Z,101082.25
2023-02-26T01:47:26.185Z,101079.53
2023-02-26T01:49:59.007Z,101048.47
2023-02-26T01:53:02.120Z,101078.66
2023-02-26T01:55:33.471Z,101071.69
2023-02-26T01:58:05.816Z,101082.91
2023-02-26T02:00:37.220Z,101089.06
2023-02-26T02:03:10.337Z,101090.72
2023-02-26T02:05:46.051Z,101087.03
2023-02-26T02:08:19.214Z,101108.81
2023-02-26T02:10:51.455Z,101103.59
2023-02-26T02:13:50.164Z,101109.50
2023-02-26T02:16:40.119Z,101110.97
2023-02-26T02:19:49.121Z,101103.72
2023-02-26T02:22:45.062Z,101124.38
2023-02-26T02:25:19.282Z,101131.34
2023-02-26T02:28:14.043Z,101131.22
2023-02-26T02:31:26.989Z,101140.72
2023-02-26T02:34:12.016Z,101146.75
2023-02-26T02:36:51.514Z,101152.91
2023-02-26T02:39:28.474Z,101169.44
2023-02-26T02:42:35.403Z,101172.19
2023-02-26T02:45:29.646Z,101166.22
2023-02-26T02:48:13.809Z,101149.53
2023-02-26T02:50:55.408Z,101167.13
2023-02-26T02:53:36.410Z,101179.28
2023-02-26T02:56:19.961Z,101176.63
2023-02-26T02:59:03.010Z,101175.88
2023-02-26T03:01:35.979Z,101168.91
2023-02-26T03:04:11.241Z,101190.72
2023-02-26T03:06:43.254Z,101169.25
2023-02-26T03:09:14.522Z,101163.88
2023-02-26T03:11:46.044Z,101201.09
2023-02-26T03:14:18.302Z,101168.66
2023-02-26T03:16:58.441Z,101191.59
2023-02-26T03:20:13.670Z,101194.97
2023-02-26T03:22:48.001Z,101207.97
2023-02-26T03:25:27.069Z,101190.25
2023-02-26T03:28:08.728Z,101206.88
2023-02-26T03:30:53.533Z,101212.03
2023-02-26T03:33:50.561Z,101165.16
2023-02-26T03:36:31.320Z,101195.06
2023-02-26T03:39:16.224Z,101219.88
2023-02-26T03:41:55.975Z,101212.97
2023-02-26T03:44:33.680Z,101226.81
2023-02-26T03:47:10.161Z,101217.78
2023-02-26T03:49:53.121Z,101230.16
2023-02-26T03:52:28.723Z,101243.06
2023-02-26T03:55:33.100Z,101241.22
2023-02-26T03:58:04.748Z,101214.41
2023-02-26T04:00:40.318Z,101259.22
2023-02-26T04:04:02.048Z,101271.28
2023-02-26T04:06:34.854Z,101268.47
2023-02-26T04:09:06.577Z,101242.66
2023-02-26T04:11:39.445Z,101267.59
2023-02-26T04:14:10.916Z,101270.25
2023-02-26T04:16:44.014Z,101255.03
2023-02-26T04:19:15.498Z,101274.69
2023-02-26T04:21:46.858Z,101287.81
2023-02-26T04:24:18.178Z,101266.56
2023-02-26T04:26:49.619Z,101292.06
2023-02-26T04:29:20.873Z,101300.69
2023-02-26T04:31:52.733Z,101297.28
2023-02-26T04:34:24.064Z,101305.13
2023-02-26T04:36:55.362Z,101303.28
2023-02-26T04:39:26.669Z,101304.13
2023-02-26T04:41:57.932Z,101274.66
2023-02-26T04:44:29.223Z,101316.03
2023-02-26T04:47:00.568Z,101268.81
2023-02-26T04:49:31.901Z,101324.50
2023-02-26T04:52:03.454Z,101316.50
2023-02-26T04:54:34.863Z,101322.59
2023-02-26T04:57:06.166Z,101329.31
2023-02-26T04:59:38.773Z,101303.31
2023-02-26T05:02:10.083Z,101328.16
2023-02-26T05:04:41.430Z,101312.63
2023-02-26T05:07:12.698Z,101326.84
2023-02-26T05:09:43.988Z,101339.00
2023-02-26T05:12:16.002Z,101306.06
2023-02-26T05:14:47.344Z,101344.22
2023-02-26T05:17:18.612Z,101345.84
2023-02-26T05:19:49.903Z,101354.38
2023-02-26T05:22:21.231Z,101351.59
2023-02-26T05:24:52.489Z,101346.03
2023-02-26T05:27:23.873Z,101357.47
2023-02-26T05:29:55.132Z,101366.97
2023-02-26T05:32:26.623Z,101363.53
2023-02-26T05:34:57.922Z,101365.31
2023-02-26T05:37:29.263Z,101344.78
2023-02-26T05:40:00.540Z,101359.50
2023-02-26T05:42:31.959Z,101385.34
2023-02-26T05:45:06.012Z,101386.31
2023-02-26T05:47:37.482Z,101385.34
2023-02-26T05:50:09.678Z,101385.28
2023-02-26T05:52:41.196Z,101393.97
2023-02-26T05:55:12.459Z,101356.59
2023-02-26T05:57:43.826Z,101366.41
2023-02-26T06:00:15.498Z,101399.09
2023-02-26T06:02:46.841Z,101379.44
2023-02-26T06:05:18.427Z,101406.00
2023-02-26T06:07:49.730Z,101410.59
2023-02-26T06:10:21.068Z,101419.41
2023-02-26T06:12:52.356Z,101423.94
2023-02-26T06:15:24.134Z,101402.66
2023-02-26T06:17:55.451Z,101424.81
2023-02-26T06:20:26.925Z,101432.63
2023-02-26T06:22:58.201Z,101430.91
2023-02-26T06:25:29.473Z,101437.88
2023-02-26T06:28:00.748Z,101438.78
2023-02-26T06:30:32.185Z,101419.06
2023-02-26T06:33:03.624Z,101455.25
2023-02-26T06:35:35.002Z,101452.59
2023-02-26T06:38:06.472Z,101460.44
2023-02-26T06:40:37.866Z,101459.56
2023-02-26T06:43:09.144Z,101462.22
2023-02-26T06:45:40.499Z,101465.78
2023-02-26T06:48:12.278Z,101471.13
2023-02-26T06:50:43.539Z,101474.84
2023-02-26T06:53:14.880Z,101491.59
2023-02-26T06:55:49.552Z,101486.69
2023-02-26T06:58:21.550Z,101495.88
2023-02-26T07:00:52.862Z,101505.78
2023-02-26T07:03:24.286Z,101505.25
2023-02-26T07:05:55.733Z,101500.31
2023-02-26T07:08:27.013Z,101491.47
2023-02-26T07:10:58.261Z,101510.53
2023-02-26T07:13:29.551Z,101487.72
2023-02-26T07:16:00.815Z,101496.63
2023-02-26T07:18:32.102Z,101520.09
2023-02-26T07:21:04.611Z,101530.22
2023-02-26T07:23:35.912Z,101528.84
2023-02-26T07:26:08.859Z,101530.91
2023-02-26T07:28:40.203Z,101531.44
2023-02-26T07:31:11.591Z,101520.50
2023-02-26T07:33:43.530Z,101505.72
2023-02-26T07:36:15.001Z,101508.59
2023-02-26T07:38:46.292Z,101525.56
2023-02-26T07:41:17.707Z,101524.19
2023-02-26T07:43:49.179Z,101548.44
2023-02-26T07:46:20.480Z,101548.81
2023-02-26T07:48:51.792Z,101553.59
2023-02-26T07:51:23.298Z,101556.56
2023-02-26T07:53:54.744Z,101545.19
2023-02-26T07:56:26.374Z,101534.94
2023-02-26T07:58:57.791Z,101565.53
2023-02-26T08:01:29.143Z,101558.91
2023-02-26T08:04:00.920Z,101570.06
2023-02-26T08:06:32.234Z,101571.13
2023-02-26T08:09:03.973Z,101572.19
2023-02-26T08:11:39.545Z,101571.47
2023-02-26T08:14:11.820Z,101576.09
2023-02-26T08:16:43.464Z,101580.69
2023-02-26T08:19:14.967Z,101592.31
2023-02-26T08:21:46.323Z,101595.22
2023-02-26T08:24:17.688Z,101599.03
2023-02-26T08:26:49.261Z,101587.66
2023-02-26T08:29:20.807Z,101597.81
2023-02-26T08:31:52.551Z,101598.09
2023-02-26T08:34:24.463Z,101604.31
2023-02-26T08:36:55.724Z,101607.06
2023-02-26T08:39:26.991Z,101558.19
2023-02-26T08:41:58.252Z,101614.44
2023-02-26T08:44:29.500Z,101602.22
2023-02-26T08:47:00.911Z,101603.53
2023-02-26T08:49:32.264Z,101620.94
2023-02-26T08:52:03.873Z,101609.53
2023-02-26T08:54:35.285Z,101616.63
2023-02-26T08:57:06.750Z,101628.16
2023-02-26T08:59:38.025Z,101633.56
2023-02-26T09:02:13.031Z,101644.25
2023-02-26T09:04:44.361Z,101644.25
2023-02-26T09:07:15.689Z,101655.03
2023-02-26T09:09:46.994Z,101661.19
2023-02-26T09:12:18.399Z,101667.41
2023-02-26T09:14:49.643Z,101673.84
2023-02-26T09:17:20.911Z,101682.00
2023-02-26T09:19:52.204Z,101674.19
2023-02-26T09:22:23.562Z,101669.78
2023-02-26T09:24:54.871Z,101664.63
2023-02-26T09:27:26.538Z,101682.56
2023-02-26T09:29:57.896Z,101705.53
2023-02-26T09:32:29.431Z,101709.16
2023-02-26T09:35:00.948Z,101698.88
2023-02-26T09:37:32.610Z,101703.38
2023-02-26T09:40:04.456Z,101700.94
2023-02-26T09:42:52.775Z,101694.25
2023-02-26T09:45:42.350Z,101703.91
2023-02-26T09:48:18.690Z,101690.66
2023-02-26T09:50:53.548Z,101706.28
2023-02-26T09:53:34.104Z,101703.88
2023-02-26T09:56:10.829Z,101719.94
2023-02-26T09:58:44.118Z,101693.56
2023-02-26T10:01:57.143Z,101715.31
2023-02-26T10:05:16.176Z,101721.41
2023-02-26T10:08:05.799Z,101712.63
2023-02-26T10:11:13.201Z,101730.41
2023-02-26T10:13:57.664Z,101720.03
2023-02-26T10:16:37.537Z,101731.72
2023-02-26T10:19:19.431Z,101737.09
2023-02-26T10:21:59.049Z,101744.16
2023-02-26T10:24:45.398Z,101726.47
2023-02-26T10:27:22.416Z,101738.16
2023-02-26T10:30:13.855Z,101749.06
2023-02-26T10:33:03.784Z,101750.41
2023-02-26T10:35:43.073Z,101743.53
2023-02-26T10:38:20.407Z,101747.16
2023-02-26T10:41:02.056Z,101751.69
2023-02-26T10:43:45.039Z,101760.66
2023-02-26T10:46:25.993Z,101747.97
2023-02-26T10:49:17.875Z,101738.59
2023-02-26T10:51:49.249Z,101768.09
2023-02-26T10:54:45.219Z,101763.09
2023-02-26T10:57:24.237Z,101770.34
2023-02-26T10:59:55.507Z,101774.34
2023-02-26T11:02:36.711Z,101768.59
2023-02-26T11:05:17.632Z,101752.69
2023-02-26T11:07:54.624Z,101772.06
2023-02-26T11:10:40.168Z,101767.44
2023-02-26T11:13:12.460Z,101783.84
2023-02-26T11:15:48.672Z,101778.00
2023-02-26T11:18:43.886Z,101780.84
2023-02-26T11:21:22.434Z,101770.03
2023-02-26T11:24:01.648Z,101774.00
2023-02-26T11:26:36.557Z,101772.91
2023-02-26T11:29:15.422Z,101792.13
2023-02-26T11:31:57.968Z,101753.31
2023-02-26T11:34:30.008Z,101775.63
2023-02-26T11:37:02.251Z,101759.03
2023-02-26T11:39:36.663Z,101775.44
2023-02-26T11:42:07.963Z,101784.22
2023-02-26T11:44:45.777Z,101755.81
2023-02-26T11:47:24.700Z,101777.47
2023-02-26T11:50:04.518Z,101783.06
2023-02-26T11:52:41.826Z,101787.63
2023-02-26T11:55:28.693Z,101783.72
2023-02-26T11:57:59.970Z,101778.41
2023-02-26T12:00:36.277Z,101773.00
2023-02-26T12:03:14.761Z,101778.16
2023-02-26T12:05:46.754Z,101760.09
2023-02-26T12:08:38.701Z,101780.13
2023-02-26T12:11:44.136Z,101784.88
2023-02-26T12:14:52.873Z,101784.78
2023-02-26T12:17:54.360Z,101775.75
2023-02-26T12:20:25.584Z,101778.72
2023-02-26T12:23:15.370Z,101784.03
2023-02-26T12:25:52.679Z,101781.53
2023-02-26T12:28:35.780Z,101792.88
2023-02-26T12:31:48.395Z,101783.91
2023-02-26T12:34:43.921Z,101792.28
2023-02-26T12:37:42.502Z,101773.31
2023-02-26T12:40:53.746Z,101804.19
2023-02-26T12:43:45.858Z,101809.88
2023-02-26T12:46:41.802Z,101801.78
2023-02-26T12:49:39.051Z,101803.03
2023-02-26T12:52:36.077Z,101805.44
2023-02-26T12:55:24.170Z,101808.53
2023-02-26T12:58:25.894Z,101805.03
2023-02-26T13:01:17.407Z,101803.00
2023-02-26T13:04:15.131Z,101777.22
2023-02-26T13:07:01.574Z,101802.06
2023-02-26T13:09:55.656Z,101791.00
2023-02-26T13:12:40.545Z,101785.09
2023-02-26T13:15:17.897Z,101794.84
2023-02-26T13:17:57.264Z,101789.97
2023-02-26T13:20:29.165Z,101777.72
2023-02-26T13:23:11.814Z,101802.53
2023-02-26T13:25:51.682Z,101791.09
2023-02-26T13:28:40.586Z,101799.13
2023-02-26T13:31:18.745Z,101798.22
2023-02-26T13:33:53.116Z,101797.25
2023-02-26T13:36:27.534Z,101774.16
2023-02-26T13:39:21.522Z,101797.03
2023-02-26T13:42:00.126Z,101802.91
2023-02-26T13:45:05.165Z,101794.91
2023-02-26T13:48:00.994Z,101774.34
2023-02-26T13:50:35.063Z,101798.13
2023-02-26T13:53:28.970Z,101791.03
2023-02-26T13:56:13.296Z,101793.88
2023-02-26T13:58:51.586Z,101784.78
2023-02-26T14:01:34.150Z,101806.00
2023-02-26T14:04:14.389Z,101790.94
2023-02-26T14:06:48.586Z,101791.78
2023-02-26T14:09:22.602Z,101783.44
2023-02-26T14:12:12.813Z,101787.47
2023-02-26T14:15:00.160Z,101779.59
2023-02-26T14:17:34.232Z,101787.47
2023-02-26T14:20:25.270Z,101793.53
2023-02-26T14:23:07.767Z,101794.94
2023-02-26T14:25:46.600Z,101792.00
2023-02-26T14:28:19.519Z,101795.34
2023-02-26T14:31:04.699Z,101784.22
2023-02-26T14:33:57.326Z,101775.28
2023-02-26T14:36:37.798Z,101783.44
2023-02-26T14:39:22.228Z,101788.81
2023-02-26T14:42:01.751Z,101786.97
2023-02-26T14:44:43.863Z,101786.53
2023-02-26T14:47:16.253Z,101789.56
2023-02-26T14:49:49.440Z,101789.22
2023-02-26T14:52:51.912Z,101796.75
2023-02-26T14:55:54.817Z,101795.44
2023-02-26T14:58:40.214Z,101796.00
2023-02-26T15:01:21.865Z,101793.34
2023-02-26T15:04:17.694Z,101781.47
2023-02-26T15:07:07.904Z,101780.91
2023-02-26T15:10:06.330Z,101786.63
2023-02-26T15:12:55.648Z,101793.81
2023-02-26T15:15:47.867Z,101793.03
2023-02-26T15:18:40.342Z,101793.94
2023-02-26T15:21:47.231Z,101799.00
2023-02-26T15:24:19.248Z,101817.28
2023-02-26T15:26:59.954Z,101800.34
2023-02-26T15:29:35.362Z,101802.66
2023-02-26T15:32:28.288Z,101807.53
2023-02-26T15:35:04.651Z,101804.75
2023-02-26T15:37:36.051Z,101808.00
2023-02-26T15:40:08.676Z,101789.94
2023-02-26T15:42:42.967Z,101791.56
2023-02-26T15:45:26.348Z,101810.06
2023-02-26T15:48:01.744Z,101797.63
2023-02-26T15:50:36.924Z,101814.50
2023-02-26T15:53:12.973Z,101798.50
2023-02-26T15:55:51.461Z,101800.44
2023-02-26T15:58:45.131Z,101820.13
2023-02-26T16:01:20.041Z,101829.03
2023-02-26T16:03:53.678Z,101824.75
2023-02-26T16:06:37.910Z,101813.22
2023-02-26T16:09:19.638Z,101828.38
2023-02-26T16:11:55.250Z,101833.59
2023-02-26T16:14:33.937Z,101831.81
2023-02-26T16:17:08.052Z,101828.16
2023-02-26T16:19:46.334Z,101832.63
2023-02-26T16:22:33.490Z,101829.75
2023-02-26T16:25:12.534Z,101845.16
2023-02-26T16:27:47.646Z,101841.25
2023-02-26T16:30:22.605Z,101846.88
2023-02-26T16:32:55.433Z,101854.53
2023-02-26T16:35:34.596Z,101854.25
2023-02-26T16:38:17.099Z,101860.09
2023-02-26T16:40:57.575Z,101857.16
2023-02-26T16:43:35.349Z,101863.03
2023-02-26T16:46:07.104Z,101861.06
2023-02-26T16:48:48.539Z,101871.38
2023-02-26T16:51:23.062Z,101862.28
2023-02-26T16:54:02.958Z,101872.88
2023-02-26T16:56:39.695Z,101879.63
2023-02-26T16:59:16.777Z,101875.88
2023-02-26T17:02:13.354Z,101873.09
2023-02-26T17:04:50.402Z,101870.38
2023-02-26T17:07:32.839Z,101883.25
2023-02-26T17:10:16.478Z,101876.81
2023-02-26T17:12:53.215Z,101897.78
2023-02-26T17:15:32.022Z,101895.06
2023-02-26T17:18:03.894Z,101864.59
2023-02-26T17:20:36.499Z,101899.81
2023-02-26T17:23:09.255Z,101907.66
2023-02-26T17:25:47.228Z,101908.66
2023-02-26T17:28:25.632Z,101912.97
2023-02-26T17:30:57.761Z,101916.38
2023-02-26T17:33:29.551Z,101917.25
2023-02-26T17:36:03.870Z,101923.44
2023-02-26T17:38:35.129Z,101926.06
2023-02-26T17:41:06.414Z,101927.75
2023-02-26T17:43:37.687Z,101922.97
2023-02-26T17:46:12.045Z,101935.97
2023-02-26T17:48:43.360Z,101918.78
2023-02-26T17:51:16.168Z,101931.81
2023-02-26T17:53:47.461Z,101935.94
2023-02-26T17:56:26.700Z,101942.63
2023-02-26T17:58:59.616Z,101947.59
2023-02-26T18:01:31.158Z,101957.06
2023-02-26T18:04:03.558Z,101956.03
2023-02-26T18:06:37.141Z,101955.09
2023-02-26T18:09:11.698Z,101961.06
2023-02-26T18:11:43.146Z,101951.03
2023-02-26T18:14:14.424Z,101942.72
2023-02-26T18:16:46.718Z,101970.84
2023-02-26T18:19:18.077Z,101961.69
2023-02-26T18:21:49.342Z,101968.47
2023-02-26T18:24:20.637Z,101975.59
2023-02-26T18:26:52.693Z,101952.47
2023-02-26T18:29:23.946Z,101982.50
2023-02-26T18:31:55.376Z,101982.50
2023-02-26T18:34:26.910Z,101982.44
2023-02-26T18:36:58.332Z,101979.69
2023-02-26T18:39:32.476Z,101974.88
2023-02-26T18:42:04.931Z,101972.22
2023-02-26T18:44:36.395Z,101985.03
2023-02-26T18:47:08.616Z,101972.94
2023-02-26T18:49:39.982Z,101964.75
2023-02-26T18:52:13.033Z,101990.06
2023-02-26T18:54:45.086Z,101954.91
2023-02-26T18:57:16.996Z,101986.59
2023-02-26T18:59:48.478Z,101980.59
2023-02-26T19:02:20.960Z,101981.09
2023-02-26T19:04:52.956Z,101996.63
2023-02-26T19:07:24.252Z,101998.09
2023-02-26T19:09:55.516Z,101995.34
2023-02-26T19:12:26.777Z,102000.38
2023-02-26T19:15:11.306Z,101996.59
2023-02-26T19:17:42.653Z,102001.69
2023-02-26T19:20:14.227Z,101992.75
2023-02-26T19:22:46.508Z,101992.75
2023-02-26T19:25:24.306Z,101997.00
2023-02-26T19:27:55.991Z,102004.03
2023-02-26T19:30:27.381Z,101978.59
2023-02-26T19:32:58.664Z,102000.59
2023-02-26T19:35:30.665Z,101975.88
2023-02-26T19:38:01.974Z,102007.41
2023-02-26T19:40:33.471Z,101997.28
2023-02-26T19:43:04.757Z,101996.88
2023-02-26T19:45:36.740Z,101984.97
2023-02-26T19:48:08.492Z,102005.09
2023-02-26T19:50:40.311Z,102003.91
2023-02-26T19:53:15.793Z,101978.16
2023-02-26T19:55:54.423Z,102007.56
2023-02-26T19:58:30.357Z,102007.03
2023-02-26T20:01:04.510Z,102017.31
2023-02-26T20:03:36.008Z,102014.34
2023-02-26T20:06:08.314Z,102020.13
2023-02-26T20:08:40.818Z,102022.44
2023-02-26T20:11:12.482Z,101981.13
2023-02-26T20:13:44.047Z,101997.81
2023-02-26T20:16:16.262Z,102020.59
2023-02-26T20:18:47.718Z,102021.91
2023-02-26T20:21:19.072Z,102001.19
2023-02-26T20:23:50.363Z,102040.97
2023-02-26T20:26:21.674Z,102049.28
2023-02-26T20:28:52.979Z,102011.63
2023-02-26T20:31:24.471Z,102025.38
2023-02-26T20:33:56.627Z,102041.47
2023-02-26T20:36:27.893Z,102040.25
2023-02-26T20:39:02.098Z,102039.06
2023-02-26T20:41:33.367Z,102037.91
2023-02-26T20:44:04.787Z,102039.53
2023-02-26T20:46:38.725Z,102041.00
2023-02-26T20:49:11.548Z,101984.25
2023-02-26T20:51:43.792Z,102044.81
2023-02-26T20:54:16.174Z,102045.38
2023-02-26T20:56:48.720Z,102046.19
2023-02-26T20:59:20.110Z,102049.63
2023-02-26T21:01:53.169Z,102058.22
2023-02-26T21:04:24.651Z,102061.41
2023-02-26T21:07:12.363Z,102053.50
2023-02-26T21:09:44.294Z,102047.72
2023-02-26T21:12:16.467Z,102059.53
2023-02-26T21:14:50.131Z,102059.34
2023-02-26T21:17:25.852Z,102071.56
2023-02-26T21:19:57.146Z,102060.91
2023-02-26T21:22:28.397Z,102056.03
2023-02-26T21:24:59.642Z,102071.78
2023-02-26T21:27:31.100Z,102050.00
2023-02-26T21:30:04.247Z,102067.81
2023-02-26T21:32:35.852Z,102073.72
2023-02-26T21:35:09.174Z,102058.50
2023-02-26T21:37:40.450Z,102078.50
2023-02-26T21:40:14.438Z,102058.81
2023-02-26T21:42:45.737Z,102060.25
2023-02-26T21:45:17.089Z,102078.06
2023-02-26T21:47:48.428Z,102081.38
2023-02-26T21:50:20.019Z,102082.13
2023-02-26T21:52:51.376Z,102071.03
2023-02-26T21:55:22.789Z,102090.38
2023-02-26T21:57:54.031Z,102085.00
2023-02-26T22:00:26.086Z,102088.31
2023-02-26T22:02:58.073Z,102097.56
2023-02-26T22:05:29.357Z,102053.50
2023-02-26T22:08:00.653Z,102090.13
2023-02-26T22:10:32.061Z,102098.00
2023-02-26T22:13:03.450Z,102096.94
2023-02-26T22:15:34.798Z,102092.47
2023-02-26T22:18:06.205Z,102102.59
2023-02-26T22:20:37.698Z,102089.94
2023-02-26T22:23:09.042Z,102103.03
2023-02-26T22:25:40.391Z,102101.16
2023-02-26T22:28:11.975Z,102100.06
2023-02-26T22:30:43.274Z,102109.56
2023-02-26T22:33:14.698Z,102105.97
2023-02-26T22:35:45.991Z,102102.41
2023-02-26T22:38:17.365Z,102090.75
2023-02-26T22:40:48.643Z,102109.38
2023-02-26T22:43:20.604Z,102104.63
2023-02-26T22:45:51.966Z,102114.94
2023-02-26T22:48:23.258Z,102119.22
2023-02-26T22:50:54.588Z,102113.03
2023-02-26T22:53:25.869Z,102107.56
2023-02-26T22:55:58.258Z,102112.69
2023-02-26T22:58:29.539Z,102123.88
2023-02-26T23:01:05.192Z,102119.47
2023-02-26T23:03:36.635Z,102116.81
2023-02-26T23:06:08.577Z,102118.44
2023-02-26T23:08:40.240Z,102106.69
2023-02-26T23:11:11.533Z,102108.66
2023-02-26T23:13:42.804Z,102110.28
2023-02-26T23:16:14.300Z,102117.97
2023-02-26T23:18:47.957Z,102103.63
2023-02-26T23:21:19.412Z,102105.25
2023-02-26T23:23:50.754Z,102118.41
2023-02-26T23:26:22.046Z,102112.75
2023-02-26T23:28:53.341Z,102115.44
2023-02-26T23:31:25.291Z,102115.97
2023-02-26T23:33:56.951Z,102130.81
2023-02-26T23:36:28.260Z,102124.44
2023-02-26T23:38:59.645Z,102131.25
2023-02-26T23:41:31.058Z,102118.59
2023-02-26T23:44:02.312Z,102104.16
2023-02-26T23:46:33.684Z,102122.72
2023-02-26T23:49:05.102Z,102125.31
2023-02-26T23:51:38.284Z,102123.31
2023-02-26T23:54:09.755Z,102134.16
2023-02-26T23:56:41.151Z,102128.00
2023-02-26T23:59:12.497Z,102131.38
